Time;durP1;ratioP1;P1;durP2;ratioP2;P2;SDS_P1;SDS_P2;PMS_P1;PMS_P2;Temp;Humidity;BMP_temperature;BMP_pressure;BME280_temperature;BME280_humidity;BME280_pressure;Samples;Min_cycle;Max_cycle;Signal;HPM_P1;HPM_P2
2022/07/20 00:01:08;;;;;;;;;27.00;21.75;;;;;27.56;43.09;101215.94;5000605;28;45380;-87
2022/07/20 00:03:34;;;;;;;;;20.00;16.25;;;;;27.57;43.48;101212.31;4984520;28;46320;-87
2022/07/20 00:05:59;;;;;;;;;27.00;22.50;;;;;27.56;42.85;101215.94;5017855;28;64397;-87
2022/07/20 00:11:20;;;;;;;;;25.25;21.25;;;;;27.48;43.20;101243.41;5003353;28;45465;-87
2022/07/20 00:13:51;;;;;;;;;25.75;17.25;;;;;27.44;43.14;101239.34;5018324;28;46139;-87
2022/07/20 00:16:17;;;;;;;;;25.25;20.75;;;;;27.47;43.10;101246.22;4984021;28;46000;-87
2022/07/20 00:18:42;;;;;;;;;26.75;21.50;;;;;27.48;43.79;101255.94;5000643;28;45412;-87
2022/07/20 00:21:08;;;;;;;;;21.25;21.00;;;;;27.38;45.01;101280.84;5017891;28;52193;-88
2022/07/20 00:23:33;;;;;;;;;27.25;25.50;;;;;27.22;45.40;101308.09;5016831;28;47967;-89
2022/07/20 00:25:59;;;;;;;;;25.50;23.00;;;;;27.08;45.47;101323.69;5000785;28;45376;-87
2022/07/20 00:28:24;;;;;;;;;26.00;20.00;;;;;26.94;46.22;101341.78;5000331;28;45409;-86
2022/07/20 00:30:49;;;;;;;;;25.50;20.75;;;;;26.83;46.94;101355.25;4991714;28;63223;-87
2022/07/20 00:33:14;;;;;;;;;26.25;21.75;;;;;26.75;46.99;101387.97;4980319;28;56948;-86
2022/07/20 00:35:40;;;;;;;;;24.50;21.50;;;;;26.62;47.97;101406.91;4979755;28;67801;-86
2022/07/20 00:38:05;;;;;;;;;25.75;23.00;;;;;26.52;48.35;101418.47;4964367;28;45317;-86
2022/07/20 00:40:31;;;;;;;;;24.00;20.75;;;;;26.40;49.68;101410.53;4996223;28;62069;-87
2022/07/20 00:42:56;;;;;;;;;25.50;21.50;;;;;26.28;49.30;101416.94;4998096;28;45720;-88
2022/07/20 00:45:21;;;;;;;;;23.75;22.25;;;;;26.10;50.45;101397.97;4998998;28;45370;-87
2022/07/20 00:47:48;;;;;;;;;32.00;25.75;;;;;25.98;51.59;101375.84;4964581;28;50095;-86
2022/07/20 00:50:14;;;;;;;;;33.50;27.50;;;;;25.95;51.59;101361.94;4999137;28;45372;-87
2022/07/20 00:52:40;;;;;;;;;24.00;22.75;;;;;25.88;52.60;101333.06;4964481;28;46705;-86
2022/07/20 00:55:06;;;;;;;;;32.00;29.25;;;;;25.83;52.89;101289.09;4980446;28;45440;-86
2022/07/20 00:57:32;;;;;;;;;29.25;27.75;;;;;25.76;54.16;101279.94;4980662;28;45361;-85
2022/07/20 00:59:57;;;;;;;;;44.50;35.25;;;;;25.65;54.83;101289.69;4998504;28;45466;-86
2022/07/20 01:02:23;;;;;;;;;46.50;36.00;;;;;25.57;54.82;101286.81;4981226;28;45548;-86
2022/07/20 01:04:48;;;;;;;;;43.00;35.50;;;;;25.50;56.00;101282.97;4998617;28;45284;-86
2022/07/20 01:07:13;;;;;;;;;45.75;37.00;;;;;25.48;56.61;101280.47;4998682;28;45304;-85
2022/07/20 01:09:39;;;;;;;;;51.25;40.00;;;;;25.49;57.06;101275.97;4981263;28;45246;-85
2022/07/20 01:12:04;;;;;;;;;47.50;38.75;;;;;25.52;56.42;101253.53;5016086;28;71312;-85
2022/07/20 01:14:30;;;;;;;;;45.75;38.25;;;;;25.55;56.73;101234.63;5017124;28;45420;-86
2022/07/20 01:16:55;;;;;;;;;45.50;38.25;;;;;25.59;56.83;101225.38;4982870;28;66359;-85
2022/07/20 01:19:20;;;;;;;;;47.25;39.25;;;;;25.60;56.04;101208.44;4983235;28;51557;-86
2022/07/20 01:21:46;;;;;;;;;49.00;39.00;;;;;25.60;56.23;101214.59;4998889;28;69585;-85
2022/07/20 01:24:12;;;;;;;;;50.50;39.25;;;;;25.67;55.59;101220.25;4999167;28;56467;-86
2022/07/20 01:26:43;;;;;;;;;53.00;41.00;;;;;25.63;56.89;101218.81;4999775;28;45437;-85
2022/07/20 01:29:09;;;;;;;;;53.00;41.75;;;;;25.66;55.81;101251.38;5016966;28;45402;-85
2022/07/20 01:31:35;;;;;;;;;51.00;38.50;;;;;25.62;55.42;101252.63;5016964;28;46210;-85
2022/07/20 01:34:00;;;;;;;;;49.75;39.25;;;;;25.64;56.07;101255.16;4999414;28;45394;-86
2022/07/20 01:36:26;;;;;;;;;51.00;42.25;;;;;25.68;56.45;101260.09;4999447;28;45435;-86
2022/07/20 01:38:52;;;;;;;;;52.00;43.00;;;;;25.67;55.91;101245.09;4983103;28;55815;-85
2022/07/20 01:41:17;;;;;;;;;49.50;41.75;;;;;25.73;55.75;101229.56;4999101;28;45461;-86
2022/07/20 01:43:43;;;;;;;;;53.75;40.75;;;;;25.78;55.67;101220.19;4998929;28;45310;-86
2022/07/20 01:46:08;;;;;;;;;54.50;42.75;;;;;25.78;55.96;101233.53;4982902;28;45436;-85
2022/07/20 01:48:33;;;;;;;;;52.25;43.25;;;;;25.74;55.70;101240.06;5017168;28;45271;-86
2022/07/20 01:50:59;;;;;;;;;54.00;43.00;;;;;25.67;55.27;101244.25;5016756;28;46126;-85
2022/07/20 01:53:24;;;;;;;;;56.25;44.25;;;;;25.64;55.64;101247.16;4998807;28;45377;-85
2022/07/20 01:55:51;;;;;;;;;55.00;43.50;;;;;25.60;55.38;101238.59;4982735;28;45258;-86
2022/07/20 01:58:17;;;;;;;;;54.00;41.50;;;;;25.57;55.90;101246.00;5016368;28;45391;-86
2022/07/20 02:00:42;;;;;;;;;57.75;43.75;;;;;25.56;55.66;101260.31;4998952;28;45454;-86
2022/07/20 02:03:07;;;;;;;;;59.25;45.00;;;;;25.54;55.65;101283.56;5016391;28;52407;-86
2022/07/20 02:05:33;;;;;;;;;54.50;43.25;;;;;25.46;55.57;101302.84;5015783;28;64902;-86
2022/07/20 02:07:58;;;;;;;;;52.75;42.00;;;;;25.34;56.04;101336.72;4998713;28;45254;-83
2022/07/20 02:10:24;;;;;;;;;57.00;46.00;;;;;25.34;55.92;101363.34;4997631;28;47336;-85
2022/07/20 02:12:49;;;;;;;;;53.50;43.50;;;;;25.34;55.77;101381.16;5015787;28;45371;-85
2022/07/20 02:16:14;;;;;;;;;55.50;42.50;;;;;25.25;56.30;101374.75;4998859;28;45289;-85
2022/07/20 02:18:05;;;;;;;;;57.25;44.50;;;;;25.25;55.93;101338.28;5016205;28;45625;-86
2022/07/20 02:20:30;;;;;;;;;54.50;43.75;;;;;25.25;55.80;101316.16;5016630;28;46544;-86
2022/07/20 02:22:56;;;;;;;;;56.25;44.00;;;;;25.27;56.08;101335.50;5016682;28;45498;-85
2022/07/20 02:25:21;;;;;;;;;56.25;44.00;;;;;25.30;55.72;101349.44;5016527;28;45475;-86
2022/07/20 02:27:46;;;;;;;;;55.00;44.00;;;;;25.34;55.97;101355.34;4998443;28;45476;-86
2022/07/20 02:30:12;;;;;;;;;58.50;44.25;;;;;25.35;56.21;101367.69;4981816;28;48418;-85
2022/07/20 02:32:37;;;;;;;;;51.50;41.00;;;;;25.35;55.61;101351.72;4982221;28;45329;-86
2022/07/20 02:35:03;;;;;;;;;53.50;43.00;;;;;25.36;56.13;101344.56;5015681;28;67891;-85
2022/07/20 02:37:28;;;;;;;;;56.00;44.25;;;;;25.33;56.25;101363.47;4998593;28;45584;-85
2022/07/20 02:39:55;;;;;;;;;55.75;44.75;;;;;25.23;56.53;101377.53;4998210;28;47539;-86
2022/07/20 02:42:20;;;;;;;;;56.25;43.50;;;;;25.09;56.72;101370.66;4998345;28;45376;-86
2022/07/20 02:44:45;;;;;;;;;53.50;43.25;;;;;25.12;57.00;101366.88;4997917;28;58051;-86
2022/07/20 02:47:11;;;;;;;;;56.50;45.25;;;;;25.15;56.40;101360.44;4997704;28;67199;-87
2022/07/20 02:49:36;;;;;;;;;55.75;43.50;;;;;25.15;56.54;101371.09;4998125;28;52058;-86
2022/07/20 02:52:01;;;;;;;;;54.75;44.50;;;;;25.14;56.59;101385.41;4997701;28;67174;-86
2022/07/20 02:54:27;;;;;;;;;58.75;45.00;;;;;25.07;56.17;101393.91;4998160;28;45395;-88
2022/07/20 02:56:52;;;;;;;;;61.00;45.00;;;;;24.96;56.23;101399.22;4997880;28;57502;-87
2022/07/20 02:59:17;;;;;;;;;54.25;43.75;;;;;24.87;56.95;101411.44;5015386;28;60232;-86
2022/07/20 03:01:43;;;;;;;;;57.00;44.50;;;;;24.84;56.82;101413.50;4998215;28;45415;-87
2022/07/20 03:04:08;;;;;;;;;61.25;45.50;;;;;24.81;57.43;101437.69;4997525;28;45324;-87
2022/07/20 03:06:34;;;;;;;;;59.50;45.50;;;;;24.78;57.60;101448.63;4998448;28;46599;-87
2022/07/20 03:08:59;;;;;;;;;57.50;46.75;;;;;24.78;57.97;101467.25;5015413;28;62386;-88
2022/07/20 03:11:24;;;;;;;;;55.00;44.00;;;;;24.70;58.43;101451.84;5015651;28;45363;-87
2022/07/20 03:13:50;;;;;;;;;58.25;45.25;;;;;24.67;58.59;101466.25;5015591;28;50268;-86
2022/07/20 03:16:15;;;;;;;;;57.50;44.25;;;;;24.66;58.59;101477.84;5015647;28;57379;-87
2022/07/20 03:18:40;;;;;;;;;52.00;43.25;;;;;24.64;58.42;101479.78;5015993;28;55702;-87
2022/07/20 03:21:05;;;;;;;;;57.00;44.25;;;;;24.63;58.41;101486.09;4997854;28;56904;-87
2022/07/20 03:23:31;;;;;;;;;55.50;44.25;;;;;24.67;58.81;101495.53;4997638;28;60367;-87
2022/07/20 03:25:56;;;;;;;;;58.75;46.00;;;;;24.71;58.51;101486.34;5000278;28;45386;-86
2022/07/20 03:28:21;;;;;;;;;58.00;44.75;;;;;24.77;58.08;101462.88;5040608;28;53376;-88
2022/07/20 03:30:47;;;;;;;;;54.75;44.50;;;;;24.77;57.86;101462.88;5024550;28;44681;-86
2022/07/20 03:33:12;;;;;;;;;56.25;44.25;;;;;24.76;58.12;101467.38;5041800;28;44585;-87
2022/07/20 03:35:37;;;;;;;;;61.25;47.25;;;;;24.75;58.15;101464.81;5040246;28;63891;-87
2022/07/20 03:38:03;;;;;;;;;53.50;44.25;;;;;24.72;58.37;101471.19;5041408;28;47592;-88
2022/07/20 03:40:28;;;;;;;;;56.25;44.25;;;;;24.67;58.54;101458.25;5024501;28;44841;-86
2022/07/20 03:42:54;;;;;;;;;54.25;43.00;;;;;24.68;58.40;101470.63;5024002;28;45296;-88
2022/07/20 03:45:19;;;;;;;;;57.50;45.75;;;;;24.65;58.74;101472.66;5025099;28;45223;-86
2022/07/20 03:47:44;;;;;;;;;56.75;44.50;;;;;24.63;59.36;101474.59;5016550;28;46406;-87
2022/07/20 03:50:10;;;;;;;;;59.75;44.50;;;;;24.61;58.85;101468.53;5016618;28;45290;-86
2022/07/20 03:52:35;;;;;;;;;54.00;44.00;;;;;24.60;59.77;101477.50;4998018;28;51814;-86
2022/07/20 03:55:00;;;;;;;;;54.25;44.00;;;;;24.59;60.26;101486.44;5015895;28;45435;-86
2022/07/20 03:57:26;;;;;;;;;60.50;45.25;;;;;24.58;60.62;101506.88;5014616;28;68474;-85
2022/07/20 03:59:51;;;;;;;;;56.50;44.50;;;;;24.52;61.39;101516.19;5014426;28;68634;-85
2022/07/20 04:02:17;;;;;;;;;58.25;45.75;;;;;24.43;62.47;101516.84;5015373;28;45439;-85
2022/07/20 04:04:42;;;;;;;;;62.25;46.50;;;;;24.39;63.78;101526.03;4997298;28;59404;-84
2022/07/20 04:07:07;;;;;;;;;53.00;41.00;;;;;24.34;62.55;101542.31;4996630;28;48598;-84
2022/07/20 04:09:44;;;;;;;;;48.25;38.75;;;;;24.21;62.19;101532.72;5014636;28;45353;-84
2022/07/20 04:12:13;;;;;;;;;53.25;41.50;;;;;24.09;63.57;101521.16;5014657;28;45382;-83
2022/07/20 04:14:38;;;;;;;;;50.75;38.75;;;;;24.07;64.09;101517.75;5015790;28;45272;-83
2022/07/20 04:17:04;;;;;;;;;45.50;38.50;;;;;24.00;62.87;101504.09;4999730;28;71394;-82
2022/07/20 04:19:29;;;;;;;;;44.00;37.50;;;;;23.94;63.86;101496.53;5017282;28;66631;-83
2022/07/20 04:22:01;;;;;;;;;49.00;39.25;;;;;23.94;64.68;101486.78;5017176;28;63195;-83
2022/07/20 04:24:27;;;;;;;;;52.50;39.00;;;;;23.98;65.16;101483.88;5018315;28;45481;-83
2022/07/20 04:26:52;;;;;;;;;47.50;38.25;;;;;23.98;64.09;101490.06;4983647;28;47642;-83
2022/07/20 04:29:18;;;;;;;;;45.00;36.50;;;;;23.93;64.54;101493.03;5017970;28;45408;-83
2022/07/20 04:31:44;;;;;;;;;47.75;38.25;;;;;23.88;64.54;101465.94;5000341;28;45420;-84
2022/07/20 04:34:09;;;;;;;;;45.50;36.00;;;;;23.88;63.47;101449.16;5018001;28;45395;-84
2022/07/20 04:36:34;;;;;;;;;46.25;35.25;;;;;23.90;64.99;101439.25;5016794;28;69975;-84
2022/07/20 04:38:59;;;;;;;;;47.50;36.25;;;;;23.95;64.73;101423.81;4982773;28;72547;-84
2022/07/20 04:41:25;;;;;;;;;45.25;36.25;;;;;23.95;65.38;101413.16;4999328;28;66764;-84
2022/07/20 04:43:50;;;;;;;;;40.75;33.25;;;;;23.96;65.06;101409.56;4999356;28;67576;-84
2022/07/20 04:46:16;;;;;;;;;35.50;32.25;;;;;23.94;64.93;101390.19;5017736;28;45333;-85
2022/07/20 04:48:41;;;;;;;;;40.50;33.25;;;;;23.96;64.99;101397.09;4999980;28;45404;-84
2022/07/20 04:51:06;;;;;;;;;34.75;30.75;;;;;23.89;63.20;101422.44;4999015;28;65958;-84
2022/07/20 04:53:32;;;;;;;;;44.75;34.50;;;;;23.79;62.47;101429.41;4999106;28;69457;-84
2022/07/20 04:55:57;;;;;;;;;39.25;32.75;;;;;23.74;63.46;101431.53;5016730;28;71078;-84
2022/07/20 04:58:22;;;;;;;;;38.00;30.75;;;;;23.66;63.82;101458.69;5016629;28;71869;-84
2022/07/20 05:00:48;;;;;;;;;33.50;28.25;;;;;23.60;62.61;101474.22;5017025;28;58461;-85
2022/07/20 05:03:13;;;;;;;;;37.75;30.25;;;;;23.51;63.41;101495.19;5017059;28;52623;-84
2022/07/20 05:05:38;;;;;;;;;33.00;29.25;;;;;23.46;62.96;101520.34;4998338;28;75076;-84
2022/07/20 05:08:04;;;;;;;;;32.50;29.00;;;;;23.43;63.98;101529.41;4999649;28;45415;-84
2022/07/20 05:10:30;;;;;;;;;29.75;26.00;;;;;23.40;64.03;101513.66;4999714;28;45301;-85
2022/07/20 05:12:55;;;;;;;;;30.50;28.50;;;;;23.39;63.19;101507.53;5017453;28;45387;-83
2022/07/20 05:15:23;;;;;;;;;28.50;27.00;;;;;23.40;64.12;101489.75;5016328;28;74040;-85
2022/07/20 05:17:49;;;;;;;;;27.00;24.75;;;;;23.42;63.47;101498.50;5000138;28;45278;-84
2022/07/20 05:20:14;;;;;;;;;23.25;20.75;;;;;23.30;62.09;101494.88;4999196;28;45355;-85
2022/07/20 05:22:42;;;;;;;;;28.25;24.75;;;;;23.28;63.33;101477.38;5016805;28;57133;-84
2022/07/20 05:25:07;;;;;;;;;27.00;24.75;;;;;23.19;61.86;101505.44;4999781;28;46348;-83
2022/07/20 05:27:33;;;;;;;;;23.25;23.00;;;;;23.12;62.86;101482.91;5016180;28;45405;-84
2022/07/20 05:29:58;;;;;;;;;22.50;20.50;;;;;23.07;62.58;101474.41;4998767;28;67694;-86
2022/07/20 05:32:23;;;;;;;;;28.75;25.25;;;;;23.03;63.80;101441.03;5000149;28;45451;-95
2022/07/20 05:34:49;;;;;;;;;28.50;25.00;;;;;23.01;64.16;101401.31;4983649;28;48759;-90
2022/07/20 05:37:29;;;;;;;;;;;;;;;;;;;;;
2022/07/20 05:40:02;;;;;;;;;23.25;22.50;;;;;23.00;64.24;101371.28;5001126;28;68748;-92
2022/07/20 05:42:27;;;;;;;;;34.50;27.00;;;;;22.93;63.02;101390.41;5000733;28;45428;-90
2022/07/20 05:44:55;;;;;;;;;28.00;25.00;;;;;22.88;63.77;101430.56;4983511;28;47190;-88
2022/07/20 05:47:21;;;;;;;;;27.25;25.75;;;;;22.81;64.09;101445.22;4983388;28;45381;-87
2022/07/20 05:49:48;;;;;;;;;32.75;27.50;;;;;22.77;64.34;101455.19;4999203;28;45422;-87
2022/07/20 05:52:14;;;;;;;;;27.50;25.75;;;;;22.78;64.64;101470.16;4983055;28;45294;-87
2022/07/20 05:54:47;;;;;;;;;26.50;25.75;;;;;22.82;64.46;101462.81;4999538;28;46377;-87
2022/07/20 05:57:13;;;;;;;;;29.25;23.00;;;;;22.84;63.57;101463.56;5016653;28;45403;-86
2022/07/20 05:59:39;;;;;;;;;32.75;24.75;;;;;22.85;64.69;101459.97;4999254;28;45503;-86
2022/07/20 06:02:14;;;;;;;;;32.50;28.75;;;;;22.89;63.46;101468.56;4998951;28;45479;-87
2022/07/20 06:04:42;;;;;;;;;25.25;22.50;;;;;22.83;63.91;101469.84;4998579;28;47298;-88
2022/07/20 06:07:07;;;;;;;;;32.25;27.00;;;;;22.87;64.82;101468.66;5015870;28;66938;-85
2022/07/20 06:09:40;;;;;;;;;29.50;26.50;;;;;22.96;65.01;101467.19;5016567;28;45397;-87
2022/07/20 06:12:05;;;;;;;;;23.50;23.00;;;;;23.00;62.93;101481.94;4988801;28;45365;-87
2022/07/20 06:14:31;;;;;;;;;26.00;22.50;;;;;22.97;62.17;101475.06;4996719;28;45539;-84
2022/07/20 06:17:16;;;;;;;;;26.75;26.25;;;;;23.01;62.18;101470.34;4996291;28;59590;-87
2022/07/20 06:19:51;;;;;;;;;31.75;28.50;;;;;23.08;63.74;101470.81;4996575;28;45409;-89
2022/07/20 06:22:23;;;;;;;;;25.50;24.00;;;;;23.15;62.36;101464.97;4979946;28;45393;-89
2022/07/20 06:25:01;;;;;;;;;31.75;25.00;;;;;23.15;61.49;101480.88;4963380;28;47180;-88
2022/07/20 06:27:41;;;;;;;;;26.50;26.00;;;;;23.09;61.31;101505.22;4963536;28;45325;-88
2022/07/20 06:30:11;;;;;;;;;27.25;24.50;;;;;22.99;61.83;101523.56;4980135;28;45415;-88
2022/07/20 06:32:37;;;;;;;;;28.50;25.75;;;;;22.86;62.48;101532.47;4970927;28;45273;-89
2022/07/20 06:35:08;;;;;;;;;30.00;24.00;;;;;22.84;61.74;101542.34;4962688;28;46997;-88
2022/07/20 06:37:33;;;;;;;;;27.50;22.50;;;;;22.71;61.65;101545.81;4978984;28;45413;-88
2022/07/20 06:40:11;;;;;;;;;28.25;21.75;;;;;22.66;61.29;101558.56;4979243;28;45467;-87
2022/07/20 06:42:38;;;;;;;;;21.75;20.75;;;;;22.51;61.53;101544.53;4996656;28;45483;-87
2022/07/20 06:45:10;;;;;;;;;26.75;23.00;;;;;22.47;61.90;101535.03;4978933;28;47018;-87
2022/07/20 06:47:40;;;;;;;;;25.25;22.25;;;;;22.39;62.46;101532.91;4995974;28;46026;-87
2022/07/20 06:50:08;;;;;;;;;25.50;24.00;;;;;22.37;63.09;101533.97;4978883;28;45321;-87
2022/07/20 06:52:47;;;;;;;;;;;;;;;;;;;;;
2022/07/20 06:55:16;;;;;;;;;25.50;24.00;;;;;22.38;62.93;101519.75;4979365;28;75767;-86
2022/07/20 06:57:43;;;;;;;;;27.00;22.25;;;;;22.33;63.12;101521.88;4978986;28;45393;-86
2022/07/20 07:00:23;;;;;;;;;;;;;;;;;;;;;
2022/07/20 07:02:51;;;;;;;;;26.75;23.00;;;;;22.37;62.40;101512.75;4977835;28;71282;-87
2022/07/20 07:05:16;;;;;;;;;25.00;22.00;;;;;22.37;63.25;101499.50;4977801;28;47147;-87
2022/07/20 07:07:42;;;;;;;;;26.00;22.75;;;;;22.39;62.55;101500.25;4961406;28;45526;-88
2022/07/20 07:10:10;;;;;;;;;24.75;21.25;;;;;22.34;62.77;101500.56;4957935;28;45867;-86
2022/07/20 07:12:36;;;;;;;;;21.50;19.25;;;;;22.31;62.60;101521.97;4974712;28;45655;-85
2022/07/20 07:15:05;;;;;;;;;27.00;22.00;;;;;22.24;63.54;101524.13;4968739;28;47275;-85
2022/07/20 07:17:30;;;;;;;;;24.25;23.25;;;;;22.27;62.96;101519.59;4965060;28;45266;-85
2022/07/20 07:19:58;;;;;;;;;25.50;21.00;;;;;22.23;63.50;101517.16;4962839;28;45409;-85
2022/07/20 07:22:26;;;;;;;;;23.50;20.00;;;;;22.19;63.05;101539.53;4967627;28;45753;-85
2022/07/20 07:24:52;;;;;;;;;25.75;22.00;;;;;22.14;63.45;101564.59;4948778;28;47453;-85
2022/07/20 07:27:17;;;;;;;;;24.00;22.00;;;;;22.04;63.34;101551.09;4995565;28;45354;-85
2022/07/20 07:29:43;;;;;;;;;26.50;21.00;;;;;22.03;64.80;101530.84;4994301;28;57005;-85
2022/07/20 07:32:34;;;;;;;;;20.50;19.00;;;;;22.07;64.41;101516.44;4994851;28;45431;-89
2022/07/20 07:35:06;;;;;;;;;21.75;20.50;;;;;22.16;65.26;101529.09;4978199;28;45415;-92
2022/07/20 07:37:32;;;;;;;;;25.00;21.50;;;;;22.20;64.43;101532.41;4990915;28;46667;-90
2022/07/20 07:39:57;;;;;;;;;23.75;22.25;;;;;22.18;64.44;101552.88;4960963;28;45495;-96
2022/07/20 07:42:22;;;;;;;;;24.50;22.00;;;;;22.14;63.99;101554.88;4961449;28;45481;-95
2022/07/20 07:44:49;;;;;;;;;22.75;22.50;;;;;22.14;64.10;101586.69;4961661;28;47852;-95
2022/07/20 07:47:14;;;;;;;;;25.75;23.75;;;;;22.08;63.67;101592.34;4975658;28;45428;-95
2022/07/20 07:49:41;;;;;;;;;26.50;22.75;;;;;22.09;63.94;101594.06;4944727;28;45366;-96
2022/07/20 07:52:17;;;;;;;;;25.00;23.50;;;;;22.16;63.82;101592.72;4950279;28;45574;-96
2022/07/20 07:54:43;;;;;;;;;27.00;22.50;;;;;22.18;64.08;101596.13;4985259;28;45341;-96
2022/07/20 07:57:11;;;;;;;;;25.75;23.50;;;;;22.24;64.00;101593.06;4969657;28;45302;-96
2022/07/20 07:59:36;;;;;;;;;24.50;21.50;;;;;22.36;63.79;101595.91;4948018;28;45459;-90
2022/07/20 08:02:02;;;;;;;;;26.00;23.50;;;;;22.34;63.08;101595.16;4983564;28;45317;-90
2022/07/20 08:04:27;;;;;;;;;26.00;21.00;;;;;22.29;63.58;101587.53;4965052;28;54054;-90
2022/07/20 08:06:52;;;;;;;;;24.75;21.00;;;;;22.33;63.12;101596.97;4982112;28;45368;-91
2022/07/20 08:09:18;;;;;;;;;25.75;20.50;;;;;22.36;63.54;101578.22;4983822;28;45305;-90
2022/07/20 08:11:46;;;;;;;;;23.00;20.50;;;;;22.44;62.62;101577.72;4981370;28;54866;-88
2022/07/20 08:14:15;;;;;;;;;31.00;24.50;;;;;22.58;62.90;101584.75;4974141;28;45885;-92
2022/07/20 08:16:40;;;;;;;;;23.25;20.75;;;;;22.80;62.25;101598.28;4945621;28;46054;-89
2022/07/20 08:19:05;;;;;;;;;24.50;19.75;;;;;22.93;61.45;101598.31;4990363;28;45917;-88
2022/07/20 08:21:31;;;;;;;;;27.50;23.75;;;;;23.02;61.06;101611.94;4980425;28;45558;-90
2022/07/20 08:23:56;;;;;;;;;27.25;19.00;;;;;22.93;61.18;101608.09;4980980;28;47472;-89
2022/07/20 08:26:22;;;;;;;;;25.00;22.00;;;;;22.96;61.51;101615.84;4994562;28;45496;-89
2022/07/20 08:28:47;;;;;;;;;25.25;22.25;;;;;22.96;60.60;101619.34;4945196;28;45659;-89
2022/07/20 08:31:12;;;;;;;;;25.50;20.25;;;;;23.05;61.23;101615.25;4948464;28;45460;-89
2022/07/20 08:33:38;;;;;;;;;23.00;18.00;;;;;23.11;60.09;101598.06;4993688;28;46196;-89
2022/07/20 08:36:04;;;;;;;;;21.50;20.25;;;;;23.17;59.94;101594.97;4964368;28;45507;-88
2022/07/20 08:38:29;;;;;;;;;19.25;18.75;;;;;23.22;59.67;101611.44;4981519;28;45525;-90
2022/07/20 08:40:56;;;;;;;;;18.50;16.25;;;;;23.16;59.10;101607.41;4956478;28;58701;-89
2022/07/20 08:43:23;;;;;;;;;19.25;18.50;;;;;23.11;59.37;101606.03;4980839;28;46213;-91
2022/07/20 08:45:50;;;;;;;;;17.50;13.00;;;;;23.12;58.73;101607.72;4965410;28;45581;-91
2022/07/20 08:48:18;;;;;;;;;14.75;13.00;;;;;23.10;58.99;101604.31;4981384;28;45317;-92
2022/07/20 08:50:45;;;;;;;;;14.25;14.25;;;;;23.05;59.05;101611.72;4981960;28;45512;-91
2022/07/20 08:53:10;;;;;;;;;17.75;16.75;;;;;23.10;59.53;101617.59;4981429;28;47181;-90
2022/07/20 08:55:35;;;;;;;;;20.75;15.50;;;;;23.03;59.11;101609.19;4961256;28;57270;-91
2022/07/20 08:58:01;;;;;;;;;17.75;14.75;;;;;23.03;58.81;101619.81;4949268;28;45387;-91
2022/07/20 09:00:27;;;;;;;;;15.75;13.50;;;;;22.95;58.87;101622.94;4960349;28;45618;-91
2022/07/20 09:03:01;;;;;;;;;17.75;15.00;;;;;22.93;58.37;101626.66;4960514;28;47170;-91
2022/07/20 09:05:29;;;;;;;;;15.50;14.25;;;;;22.95;58.87;101625.59;4966551;28;45360;-88
2022/07/20 09:07:57;;;;;;;;;17.50;15.00;;;;;22.96;58.53;101607.88;4944914;28;45295;-87
2022/07/20 09:10:34;;;;;;;;;19.75;14.00;;;;;23.12;58.86;101605.06;4956506;28;45453;-88
2022/07/20 09:13:13;;;;;;;;;15.25;13.50;;;;;23.29;58.26;101614.53;4983217;28;47112;-89
2022/07/20 09:15:43;;;;;;;;;14.75;11.75;;;;;23.41;58.42;101619.00;4999876;28;45752;-89
2022/07/20 09:18:15;;;;;;;;;10.25;9.50;;;;;23.51;57.83;101619.19;4996316;28;45521;-89
2022/07/20 09:20:55;;;;;;;;;12.25;10.75;;;;;23.64;57.43;101595.28;4982619;28;45507;-89
2022/07/20 09:23:27;;;;;;;;;11.25;11.25;;;;;23.83;57.30;101592.19;4991445;28;46287;-88
2022/07/20 09:26:02;;;;;;;;;11.00;11.00;;;;;23.98;56.76;101604.41;4999809;28;45891;-89
2022/07/20 09:28:44;;;;;;;;;8.75;7.75;;;;;24.01;55.91;101605.97;4999641;28;45415;-87
2022/07/20 09:31:18;;;;;;;;;12.00;10.50;;;;;24.08;56.18;101608.06;5017413;28;45341;-88
2022/07/20 09:33:55;;;;;;;;;12.75;10.00;;;;;24.18;55.48;101608.25;5017258;28;46209;-89
2022/07/20 09:36:23;;;;;;;;;7.50;7.50;;;;;24.21;55.46;101600.06;5017364;28;45284;-88
2022/07/20 09:38:49;;;;;;;;;9.00;8.00;;;;;24.24;55.36;101601.66;5000179;28;45535;-88
2022/07/20 09:41:29;;;;;;;;;8.00;8.00;;;;;24.22;54.94;101608.88;5017028;28;45471;-88
2022/07/20 09:43:55;;;;;;;;;9.25;7.00;;;;;24.08;55.03;101608.06;4983270;28;47645;-88
2022/07/20 09:46:24;;;;;;;;;8.25;7.00;;;;;23.94;55.67;101605.56;4983340;28;45913;-87
2022/07/20 09:48:52;;;;;;;;;6.75;6.75;;;;;23.85;55.45;101600.94;4999238;28;45322;-86
2022/07/20 09:51:26;;;;;;;;;8.25;7.75;;;;;23.73;55.38;101607.91;4999385;28;45376;-87
2022/07/20 09:53:56;;;;;;;;;9.25;6.25;;;;;23.61;55.69;101622.09;4982506;28;47329;-90
2022/07/20 09:56:23;;;;;;;;;8.00;7.00;;;;;23.56;55.95;101631.22;4998084;28;45325;-87
2022/07/20 09:58:50;;;;;;;;;6.75;6.75;;;;;23.46;55.82;101624.84;4998191;28;45453;-87
2022/07/20 10:01:22;;;;;;;;;6.75;5.50;;;;;23.42;55.77;101625.16;4997254;28;45510;-85
2022/07/20 10:03:50;;;;;;;;;8.50;5.25;;;;;23.35;55.92;101628.25;4998952;28;47402;-94
2022/07/20 10:06:19;;;;;;;;;8.50;6.00;;;;;23.31;55.95;101623.22;5001814;28;45323;-96
2022/07/20 10:08:45;;;;;;;;;4.25;4.25;;;;;23.27;56.33;101625.28;5018369;28;45237;-93
2022/07/20 10:11:11;;;;;;;;;8.00;6.00;;;;;23.20;56.85;101621.34;4986628;28;45540;-93
2022/07/20 10:13:39;;;;;;;;;6.50;6.50;;;;;23.21;57.12;101620.38;4999332;28;46550;-94
2022/07/20 10:16:22;;;;;;;;;7.75;6.50;;;;;23.26;56.36;101620.91;5003667;28;45138;-94
2022/07/20 10:18:48;;;;;;;;;9.00;7.00;;;;;23.24;56.81;101616.66;4966961;28;45819;-87
2022/07/20 10:21:36;;;;;;;;;8.00;6.00;;;;;23.36;56.54;101622.00;4984884;28;45376;-94
2022/07/20 10:24:44;;;;;;;;;;;;;;;;;;;;;
2022/07/20 10:27:19;;;;;;;;;9.75;6.50;;;;;23.52;56.44;101631.53;4997216;28;73094;-89
2022/07/20 10:29:47;;;;;;;;;8.50;7.25;;;;;23.62;56.54;101635.25;5017583;28;45860;-89
2022/07/20 10:32:48;;;;;;;;;8.75;7.75;;;;;23.81;56.47;101623.34;5018355;28;45368;-95
2022/07/20 10:35:51;;;;;;;;;7.50;7.00;;;;;23.93;55.47;101611.84;5007299;28;47328;-96
2022/07/20 10:38:28;;;;;;;;;9.25;7.00;;;;;24.00;55.29;101623.75;4995840;28;45907;-96
2022/07/20 10:41:32;;;;;;;;;8.25;6.25;;;;;24.04;55.17;101630.53;5028967;28;44756;-96
2022/07/20 10:44:22;;;;;;;;;7.75;7.75;;;;;23.98;55.36;101636.31;4988836;28;45289;-95
2022/07/20 10:47:19;;;;;;;;;;;;;;;;;;;;;
2022/07/20 10:50:02;;;;;;;;;5.00;3.50;;;;;24.00;55.12;101637.03;5015146;28;45302;-96
2022/07/20 10:52:36;;;;;;;;;8.00;8.00;;;;;24.01;56.04;101645.88;4985340;28;45372;-95
2022/07/20 10:55:25;;;;;;;;;7.25;6.25;;;;;23.92;54.96;101634.94;4996327;28;45413;-96
2022/07/20 10:58:20;;;;;;;;;;;;;;;;;;;;;
2022/07/20 11:00:59;;;;;;;;;8.00;7.25;;;;;23.71;55.21;101639.06;4999666;28;71540;-95
2022/07/20 11:03:45;;;;;;;;;7.50;5.00;;;;;23.60;55.29;101626.53;5018057;28;45233;-96
2022/07/20 11:06:41;;;;;;;;;8.50;6.25;;;;;23.60;55.36;101637.16;5003672;28;45551;-96
2022/07/20 11:09:07;;;;;;;;;10.75;7.00;;;;;23.63;55.83;101647.59;4998597;28;46423;-95
2022/07/20 11:11:35;;;;;;;;;8.50;6.25;;;;;23.65;55.53;101648.31;4987176;28;45586;-95
2022/07/20 11:14:17;;;;;;;;;10.25;7.50;;;;;23.67;55.76;101646.41;5027934;28;45379;-96
2022/07/20 11:17:05;;;;;;;;;5.75;5.75;;;;;23.64;56.11;101645.78;4973774;28;45302;-96
2022/07/20 11:20:02;;;;;;;;;6.75;6.75;;;;;23.58;55.73;101645.22;4971171;28;47273;-95
2022/07/20 11:22:37;;;;;;;;;;;;;;;;;;;;;
2022/07/20 11:25:06;;;;;;;;;6.75;6.25;;;;;23.58;55.70;101647.06;5004184;28;67853;-92
2022/07/20 11:27:58;;;;;;;;;6.00;5.00;;;;;23.54;55.52;101634.94;5023985;28;45387;-94
2022/07/20 11:30:37;;;;;;;;;6.00;6.00;;;;;23.58;55.42;101629.28;5003718;28;46563;-90
2022/07/20 11:35:43;;;;;;;;;8.00;6.50;;;;;23.66;56.08;101625.25;5440138;23;45912;-96